Time;durP1;ratioP1;P1;durP2;ratioP2;P2;SDS_P1;SDS_P2;PMS_P1;PMS_P2;Temp;Humidity;BMP_temperature;BMP_pressure;BME280_temperature;BME280_humidity;BME280_pressure;Samples;Min_cycle;Max_cycle;Signal;HPM_P1;HPM_P2
2022/01/25 00:24:49;;;;;;;21.85;14.13;;;;;;;15.40;43.31;94598.34;4942826;28;20050;-90
2022/01/25 00:32:12;;;;;;;10.32;8.00;;;;;;;15.48;43.06;94598.75;4939178;28;20051;-89
2022/01/25 00:34:38;;;;;;;14.60;10.30;;;;;;;15.48;43.10;94598.75;4924272;29;20039;-89
2022/01/25 00:37:03;;;;;;;13.20;7.72;;;;;;;15.46;42.93;94603.91;4924645;28;20039;-89
2022/01/25 00:39:29;;;;;;;12.50;8.25;;;;;;;15.46;43.01;94599.22;4940461;28;20058;-89
2022/01/25 00:41:54;;;;;;;13.05;7.28;;;;;;;15.48;42.64;94585.91;4924549;29;20035;-89
2022/01/25 00:44:22;;;;;;;11.32;7.50;;;;;;;15.46;42.81;94587.56;4921933;28;20031;-90
2022/01/25 00:46:47;;;;;;;10.85;8.00;;;;;;;15.48;43.00;94604.22;4939803;28;20035;-90
2022/01/25 00:49:25;;;;;;;10.48;7.20;;;;;;;15.45;43.08;94595.00;4939522;28;20042;-89
2022/01/25 00:54:27;;;;;;;11.82;8.07;;;;;;;15.43;42.90;94589.25;4957015;28;20082;-89
2022/01/25 00:56:52;;;;;;;10.45;7.15;;;;;;;15.46;42.72;94596.50;4928620;29;20047;-89
2022/01/25 00:59:21;;;;;;;13.80;8.65;;;;;;;15.47;42.71;94589.06;4941664;28;20271;-89
2022/01/25 01:01:47;;;;;;;12.30;7.32;;;;;;;15.44;42.95;94591.50;4925959;29;20130;-89
2022/01/25 01:04:14;;;;;;;11.68;7.55;;;;;;;15.42;42.66;94580.31;4926954;28;20036;-89
2022/01/25 01:06:43;;;;;;;15.50;11.38;;;;;;;15.42;42.98;94587.75;4942267;28;20050;-90
2022/01/25 01:09:10;;;;;;;10.90;6.82;;;;;;;15.47;42.78;94583.63;4940327;28;20036;-88
2022/01/25 01:11:41;;;;;;;19.40;11.90;;;;;;;15.45;42.94;94589.53;4924529;29;20489;-89
2022/01/25 01:16:55;;;;;;;;;;;;;;;15.47;42.98;94573.47;4936896;28;20035;-89
2022/01/25 01:30:40;;;;;;;10.52;7.13;;;;;;;15.48;42.60;94568.78;4924427;28;20051;-89
2022/01/25 01:33:40;;;;;;;9.75;6.80;;;;;;;15.45;42.88;94570.47;4911594;28;20079;-90
2022/01/25 01:43:45;;;;;;;13.85;9.75;;;;;;;15.42;42.90;94568.66;4957302;28;20043;-89
2022/01/25 01:48:42;;;;;;;12.75;8.48;;;;;;;15.41;42.70;94565.19;4942609;28;20043;-89
2022/01/25 01:51:21;;;;;;;10.10;7.60;;;;;;;15.38;43.03;94557.94;4943594;28;20459;-89
2022/01/25 01:53:46;;;;;;;8.65;6.53;;;;;;;15.42;42.60;94560.50;4945583;28;20031;-89
2022/01/25 01:56:12;;;;;;;12.88;8.95;;;;;;;15.40;42.76;94568.38;4942062;28;20384;-89
2022/01/25 01:58:37;;;;;;;14.82;10.07;;;;;;;15.45;42.68;94559.56;4942148;28;20050;-90
2022/01/25 02:01:04;;;;;;;11.27;7.45;;;;;;;15.44;42.88;94564.25;4941123;28;20062;-89
2022/01/25 02:03:33;;;;;;;9.77;7.72;;;;;;;15.46;42.70;94563.03;4942466;28;20035;-88
2022/01/25 02:05:59;;;;;;;11.18;6.57;;;;;;;15.48;42.53;94563.34;4959829;28;20071;-89
2022/01/25 02:08:24;;;;;;;9.45;6.53;;;;;;;15.47;42.54;94564.56;4926607;28;20040;-89
2022/01/25 02:10:51;;;;;;;8.13;6.13;;;;;;;15.42;42.89;94557.75;4941698;28;20043;-89
2022/01/25 02:13:16;;;;;;;12.50;9.23;;;;;;;15.42;42.81;94563.97;4924299;28;20043;-89
2022/01/25 02:15:45;;;;;;;11.70;7.63;;;;;;;15.47;42.71;94561.84;4942827;28;20039;-89
2022/01/25 02:23:40;;;;;;;10.65;7.72;;;;;;;15.41;42.73;94561.69;4944702;28;20091;-90
2022/01/25 02:26:06;;;;;;;13.82;9.10;;;;;;;15.41;42.86;94557.00;4925522;28;20051;-89
2022/01/25 02:28:33;;;;;;;10.52;6.80;;;;;;;15.41;42.44;94557.00;4941322;28;20043;-89
2022/01/25 02:30:59;;;;;;;14.57;9.15;;;;;;;15.44;42.89;94555.34;4942104;28;20398;-90
2022/01/25 02:33:25;;;;;;;10.05;6.63;;;;;;;15.44;42.39;94547.16;4957151;28;20039;-89
2022/01/25 02:35:50;;;;;;;13.20;8.48;;;;;;;15.45;42.42;94554.13;4960700;28;20062;-88
2022/01/25 02:38:21;;;;;;;8.35;6.00;;;;;;;15.44;42.76;94545.19;4958947;28;20039;-89
2022/01/25 02:40:47;;;;;;;10.50;7.57;;;;;;;15.40;42.58;94558.22;4944994;28;20067;-89
2022/01/25 02:43:15;;;;;;;9.73;6.47;;;;;;;15.47;42.46;94548.97;4943089;28;20043;-89
2022/01/25 02:45:45;;;;;;;9.10;6.70;;;;;;;15.47;42.55;94550.94;4961875;28;20042;-90
2022/01/25 02:48:30;;;;;;;16.80;10.40;;;;;;;15.44;42.53;94547.16;4957391;28;20558;-89
2022/01/25 02:50:57;;;;;;;9.75;6.20;;;;;;;15.42;42.77;94544.13;4951554;28;20109;-90
2022/01/25 02:53:31;;;;;;;9.70;7.65;;;;;;;15.44;42.69;94542.47;4931665;28;20042;-89
2022/01/25 02:55:56;;;;;;;7.88;5.93;;;;;;;15.48;42.44;94538.81;4947674;28;20106;-90
2022/01/25 02:58:22;;;;;;;14.07;9.55;;;;;;;15.41;42.76;94537.19;4945436;28;20039;-89
2022/01/25 03:00:47;;;;;;;9.57;6.25;;;;;;;15.44;42.58;94538.97;4946035;28;20035;-89
2022/01/25 03:03:13;;;;;;;12.10;7.53;;;;;;;15.46;42.52;94535.78;4928605;28;20082;-89
2022/01/25 03:05:38;;;;;;;11.60;7.00;;;;;;;15.45;42.57;94532.31;4944548;28;20031;-89
2022/01/25 03:08:04;;;;;;;11.57;7.93;;;;;;;15.41;42.73;94534.47;4943948;28;20502;-89
2022/01/25 03:10:37;;;;;;;15.25;10.25;;;;;;;15.41;42.70;94527.03;4928828;28;20423;-90
2022/01/25 03:13:05;;;;;;;8.80;6.22;;;;;;;15.44;42.43;94519.91;4928866;28;20038;-89
2022/01/25 03:15:54;;;;;;;11.30;7.85;;;;;;;15.44;42.61;94538.97;4927596;29;20469;-90
2022/01/25 03:21:00;;;;;;;10.63;7.68;;;;;;;15.43;42.58;94535.50;4947888;28;20043;-89
2022/01/25 03:23:28;;;;;;;12.77;9.05;;;;;;;15.47;42.75;94540.03;4930223;28;20035;-88
2022/01/25 03:25:53;;;;;;;12.27;8.13;;;;;;;15.46;42.48;94541.25;4930154;28;20038;-88
2022/01/25 03:28:19;;;;;;;10.52;6.20;;;;;;;15.43;42.60;94538.22;4943031;28;20042;-88
2022/01/25 03:30:45;;;;;;;9.10;6.35;;;;;;;15.45;42.68;94537.78;4944502;28;20062;-89
2022/01/25 03:33:11;;;;;;;15.43;10.23;;;;;;;15.43;42.40;94543.69;4943192;28;20043;-89
2022/01/25 03:35:37;;;;;;;8.48;6.07;;;;;;;15.42;42.34;94531.28;4944006;28;20046;-88
2022/01/25 03:38:02;;;;;;;9.13;6.13;;;;;;;15.43;42.38;94530.06;4928551;28;20030;-90
2022/01/25 03:40:28;;;;;;;10.50;7.05;;;;;;;15.41;42.56;94534.47;4944205;28;20113;-89
2022/01/25 03:42:55;;;;;;;11.10;6.40;;;;;;;15.42;42.39;94541.41;4928919;28;20035;-89
2022/01/25 03:45:27;;;;;;;15.27;10.43;;;;;;;15.42;42.75;94533.25;4927446;28;20046;-88
2022/01/25 03:49:48;;;;;;;10.13;7.45;;;;;;;15.39;42.68;94540.38;4946628;28;20039;-89
2022/01/25 03:50:44;;;;;;;;;;;;;;;15.41;42.60;94529.75;4966758;28;20054;-89
2022/01/25 03:53:10;;;;;;;9.23;6.82;;;;;;;15.42;42.26;94534.00;4978078;28;19948;-90
2022/01/25 03:55:41;;;;;;;11.07;6.97;;;;;;;15.38;42.50;94538.09;4946678;28;20043;-89
2022/01/25 03:58:07;;;;;;;16.05;11.75;;;;;;;15.41;42.74;94537.94;4929233;28;20062;-88
2022/01/25 04:00:33;;;;;;;8.98;6.10;;;;;;;15.37;42.55;94542.81;4945253;28;20031;-90
2022/01/25 04:03:06;;;;;;;10.15;7.00;;;;;;;15.41;42.71;94532.50;4945358;28;20035;-89
2022/01/25 04:08:09;;;;;;;9.18;6.43;;;;;;;15.44;42.39;94528.09;4962771;28;20085;-89
2022/01/25 04:10:35;;;;;;;7.80;5.55;;;;;;;15.42;42.49;94530.53;4929575;28;20042;-90
2022/01/25 04:13:00;;;;;;;10.07;7.32;;;;;;;15.48;42.43;94530.63;4946290;28;20046;-89
2022/01/25 04:15:26;;;;;;;11.50;7.97;;;;;;;15.44;42.39;94528.09;4961268;28;20378;-89
2022/01/25 04:18:01;;;;;;;7.57;5.80;;;;;;;15.41;42.33;94526.28;4940502;28;20529;-89
2022/01/25 04:20:32;;;;;;;9.90;6.80;;;;;;;15.41;42.66;94529.75;4943692;28;20039;-89
2022/01/25 04:25:43;;;;;;;8.02;6.00;;;;;;;15.46;42.44;94535.78;4932669;28;20054;-90
2022/01/25 04:28:08;;;;;;;11.75;7.88;;;;;;;15.46;42.39;94522.94;4942317;28;20047;-89
2022/01/25 04:30:36;;;;;;;11.73;8.55;;;;;;;15.43;42.35;94526.56;4943104;29;20032;-89
2022/01/25 04:33:05;;;;;;;12.63;7.88;;;;;;;15.42;42.44;94516.91;4943048;29;20051;-88
2022/01/25 04:35:45;;;;;;;;;;;;;;;;;;;;;
2022/01/25 04:49:19;;;;;;;9.57;5.93;;;;;;;15.34;42.51;94502.13;4961475;28;20091;-89
2022/01/25 04:51:53;;;;;;;10.98;7.15;;;;;;;15.33;42.46;94501.38;4950492;28;20031;-89
2022/01/25 05:00:03;;;;;;;10.50;7.13;;;;;;;15.51;42.15;94505.19;4953444;28;20620;-89
2022/01/25 05:05:07;;;;;;;11.52;7.82;;;;;;;15.36;42.70;94503.19;4948418;28;20111;-89
2022/01/25 05:07:56;;;;;;;9.30;6.78;;;;;;;15.40;42.53;94503.72;4948253;28;20509;-89
2022/01/25 05:10:21;;;;;;;10.52;7.63;;;;;;;15.41;42.36;94499.03;4961904;28;22219;-88
2022/01/25 05:13:09;;;;;;;9.77;5.60;;;;;;;15.36;42.61;94491.53;4947777;28;20038;-88
2022/01/25 05:18:15;;;;;;;8.75;5.72;;;;;;;15.46;42.27;94489.47;4948336;28;20062;-89
2022/01/25 05:23:24;;;;;;;15.55;10.00;;;;;;;15.41;42.30;94488.91;4951325;28;20053;-90
2022/01/25 05:25:50;;;;;;;9.70;6.45;;;;;;;15.44;42.34;94487.22;4945864;28;20043;-90
2022/01/25 05:28:15;;;;;;;20.25;13.35;;;;;;;15.44;42.35;94484.50;4929151;28;20039;-90
2022/01/25 05:30:40;;;;;;;24.98;7.85;;;;;;;15.49;42.12;94478.41;4927030;28;20042;-89
2022/01/25 05:33:06;;;;;;;12.60;7.22;;;;;;;15.52;42.36;94480.19;4924290;28;20050;-88
2022/01/25 05:35:31;;;;;;;27.33;15.45;;;;;;;15.57;42.38;94478.84;4940652;28;20061;-90
2022/01/25 05:37:57;;;;;;;21.65;9.23;;;;;;;15.64;41.96;94475.72;4964529;28;20059;-92
2022/01/25 05:40:42;;;;;;;50.45;30.33;;;;;;;15.74;42.43;94477.19;4939664;28;20418;-89
2022/01/25 05:46:01;;;;;;;;;;;;;;;;;;;;;
2022/01/25 05:48:23;;;;;;;22.63;12.68;;;;;;;15.68;42.00;94471.63;4949413;28;20063;-91
2022/01/25 05:50:49;;;;;;;15.50;9.75;;;;;;;15.64;42.02;94481.94;4930054;28;20043;-90
2022/01/25 05:53:14;;;;;;;12.63;8.80;;;;;;;15.62;42.19;94470.00;4951151;28;20036;-91
2022/01/25 05:55:39;;;;;;;19.30;12.00;;;;;;;15.59;42.21;94468.22;4923274;28;20031;-90
2022/01/25 05:58:05;;;;;;;17.00;10.02;;;;;;;15.57;42.33;94467.94;4944376;28;20046;-88
2022/01/25 06:00:30;;;;;;;20.17;9.82;;;;;;;15.49;42.30;94472.94;4928233;28;20062;-89
2022/01/25 06:02:56;;;;;;;28.95;14.40;;;;;;;15.60;42.78;94478.63;4936055;28;20059;-86
2022/01/25 06:05:23;;;;;;;46.67;17.08;;;;;;;15.62;40.89;94476.19;4961220;28;20405;-87
2022/01/25 06:07:49;;;;;;;79.15;21.60;;;;;;;15.48;40.14;94479.63;4956022;28;20043;-87
2022/01/25 06:10:15;;;;;;;89.70;23.70;;;;;;;15.45;39.59;94472.38;4944699;28;20514;-88
2022/01/25 06:12:42;;;;;;;89.90;21.60;;;;;;;15.43;39.73;94475.56;4947072;28;20027;-87
2022/01/25 06:15:08;;;;;;;46.63;20.63;;;;;;;15.53;39.67;94478.22;4937021;28;20043;-87
2022/01/25 06:17:35;;;;;;;51.10;21.30;;;;;;;15.40;40.04;94467.56;4945617;28;20031;-90
2022/01/25 06:20:00;;;;;;;60.95;23.02;;;;;;;15.40;39.75;94473.75;4958463;28;20055;-89
2022/01/25 06:22:26;;;;;;;82.32;26.00;;;;;;;15.44;40.12;94477.06;4953946;28;20042;-88
2022/01/25 06:24:52;;;;;;;57.17;23.15;;;;;;;15.47;40.75;94463.72;4930714;28;20039;-87
2022/01/25 06:27:17;;;;;;;61.95;22.48;;;;;;;15.47;40.79;94467.22;4956315;28;20078;-86
2022/01/25 06:29:44;;;;;;;62.53;24.75;;;;;;;15.45;41.11;94475.09;4950550;28;20406;-89
2022/01/25 06:32:09;;;;;;;51.30;26.25;;;;;;;15.43;40.21;94467.38;4933520;28;20047;-89
2022/01/25 06:34:35;;;;;;;66.90;27.98;;;;;;;15.50;39.90;94462.81;4937593;28;20073;-90
2022/01/25 06:37:00;;;;;;;60.90;27.83;;;;;;;15.49;39.99;94459.31;4924622;28;21632;-86
2022/01/25 06:39:26;;;;;;;71.97;28.38;;;;;;;15.56;40.16;94463.72;4945048;28;20042;-89
2022/01/25 06:41:51;;;;;;;75.90;31.17;;;;;;;15.51;40.23;94465.06;4955352;28;20130;-89
2022/01/25 06:44:17;;;;;;;75.82;31.80;;;;;;;15.51;40.59;94456.88;4953426;28;20072;-87
2022/01/25 06:46:46;;;;;;;76.80;32.97;;;;;;;15.55;40.94;94459.44;4957486;28;20047;-88
2022/01/25 06:49:12;;;;;;;74.32;34.28;;;;;;;15.53;41.13;94459.91;4934318;28;20097;-87
2022/01/25 06:51:38;;;;;;;77.32;36.20;;;;;;;15.49;41.07;94464.03;4921219;29;20439;-88
2022/01/25 06:54:03;;;;;;;89.40;44.50;;;;;;;15.52;41.52;94463.84;4940767;28;20545;-89
2022/01/25 06:56:28;;;;;;;64.65;33.65;;;;;;;15.66;41.45;94465.88;4938915;28;20451;-88
2022/01/25 06:58:55;;;;;;;141.93;48.38;;;;;;;15.68;41.18;94477.06;4954967;28;20043;-90
2022/01/25 07:01:20;;;;;;;83.20;39.90;;;;;;;15.64;41.19;94478.47;4953872;28;20042;-88
2022/01/25 07:03:51;;;;;;;95.03;39.85;;;;;;;15.68;41.34;94479.03;4943828;28;20419;-89
2022/01/25 07:06:16;;;;;;;80.10;38.53;;;;;;;15.63;41.56;94483.16;4942966;28;20032;-91
2022/01/25 07:08:45;;;;;;;87.82;42.65;;;;;;;15.71;41.52;94480.84;4957293;28;20051;-88
2022/01/25 07:11:12;;;;;;;77.40;37.15;;;;;;;15.71;41.40;94478.88;4952097;28;20486;-94
2022/01/25 07:13:38;;;;;;;75.07;38.00;;;;;;;15.62;41.43;94476.19;4953152;28;20046;-90
2022/01/25 07:16:03;;;;;;;115.72;42.30;;;;;;;15.54;41.76;94466.13;4925852;28;20406;-90
2022/01/25 07:18:29;;;;;;;86.60;38.33;;;;;;;15.57;41.45;94470.66;4939080;28;20043;-90
2022/01/25 07:20:54;;;;;;;76.25;37.13;;;;;;;15.59;41.60;94474.41;4951266;28;20078;-89
2022/01/25 07:23:20;;;;;;;80.63;36.15;;;;;;;15.49;40.91;94475.69;4920199;28;20040;-89
2022/01/25 07:25:46;;;;;;;108.95;42.40;;;;;;;15.53;41.07;94476.25;4904046;29;20067;-87
2022/01/25 07:28:12;;;;;;;106.18;43.03;;;;;;;15.50;40.90;94470.97;4931310;28;20039;-89
2022/01/25 07:30:40;;;;;;;104.72;45.13;;;;;;;15.50;41.30;94474.47;4941168;28;20046;-90
2022/01/25 07:33:07;;;;;;;84.90;40.90;;;;;;;15.54;41.35;94472.31;4938843;28;20054;-91
2022/01/25 07:35:33;;;;;;;83.57;44.65;;;;;;;15.57;41.44;94467.94;4928131;28;20097;-92
2022/01/25 07:37:59;;;;;;;103.20;52.00;;;;;;;15.53;41.86;94478.97;4931245;28;20034;-86
2022/01/25 07:40:25;;;;;;;103.85;60.75;;;;;;;15.56;41.88;94471.88;4935200;28;20129;-89
2022/01/25 07:42:53;;;;;;;115.90;62.50;;;;;;;15.59;41.77;94484.56;4931240;28;20110;-90
2022/01/25 07:45:21;;;;;;;122.15;61.90;;;;;;;15.58;41.61;94483.06;4934929;28;20043;-88
2022/01/25 07:47:49;;;;;;;130.07;66.35;;;;;;;15.60;41.55;94483.34;4930892;28;20378;-89
2022/01/25 07:50:15;;;;;;;182.13;79.18;;;;;;;15.63;41.49;94488.59;4919661;28;20044;-87
2022/01/25 07:52:41;;;;;;;123.50;72.53;;;;;;;15.61;41.71;94487.56;4940214;28;20057;-90
2022/01/25 07:55:07;;;;;;;141.93;75.40;;;;;;;15.61;42.05;94485.59;4936562;28;20031;-90
2022/01/25 07:57:33;;;;;;;133.93;72.00;;;;;;;15.62;41.77;94486.34;4914742;29;20097;-89
2022/01/25 07:59:58;;;;;;;143.95;77.75;;;;;;;15.62;41.68;94489.81;4945381;28;20118;-92
2022/01/25 08:02:24;;;;;;;145.10;75.88;;;;;;;15.66;41.76;94486.94;4929211;28;20059;-87
2022/01/25 08:04:53;;;;;;;144.02;73.78;;;;;;;15.61;41.96;94491.03;4935262;28;20035;-92
2022/01/25 08:07:18;;;;;;;140.50;72.03;;;;;;;15.58;42.08;94488.53;4944318;28;20508;-92
2022/01/25 08:09:44;;;;;;;141.30;78.28;;;;;;;15.58;42.25;94486.56;4945474;28;20043;-92
2022/01/25 08:12:11;;;;;;;136.18;75.95;;;;;;;15.67;41.99;94486.47;4974938;28;20059;-90
2022/01/25 08:14:42;;;;;;;148.45;80.30;;;;;;;15.60;42.05;94491.50;4930973;28;20054;-90
2022/01/25 08:17:07;;;;;;;;;;;;;;;15.63;41.84;94485.13;4956852;28;20039;-92
2022/01/25 08:19:32;;;;;;;140.57;76.27;;;;;;;15.62;42.21;94486.34;4953722;28;19932;-87
2022/01/25 08:22:01;;;;;;;144.05;73.85;;;;;;;15.62;41.89;94489.81;4956255;28;20777;-91
2022/01/25 08:24:27;;;;;;;151.20;80.80;;;;;;;15.63;42.02;94490.59;4951163;28;20099;-90
2022/01/25 08:26:52;;;;;;;166.70;91.35;;;;;;;15.69;41.98;94491.44;4929960;28;20035;-89
2022/01/25 08:29:18;;;;;;;190.68;93.22;;;;;;;15.68;42.00;94485.25;4963558;28;20043;-90
2022/01/25 08:31:43;;;;;;;176.48;95.03;;;;;;;15.69;42.20;94488.72;4934902;29;20484;-91
2022/01/25 08:34:11;;;;;;;177.38;88.97;;;;;;;15.71;42.16;94483.56;4939381;28;20059;-91
2022/01/25 08:36:36;;;;;;;185.68;91.50;;;;;;;15.69;42.25;94486.75;4905260;29;20047;-89
2022/01/25 08:39:03;;;;;;;196.45;96.88;;;;;;;15.65;42.28;94485.41;4918680;29;20040;-88
2022/01/25 08:41:28;;;;;;;185.60;94.03;;;;;;;15.64;42.09;94487.38;4931363;29;20368;-89
2022/01/25 08:43:54;;;;;;;207.82;101.72;;;;;;;15.67;42.28;94491.91;4936799;28;20046;-90
2022/01/25 08:46:19;;;;;;;170.38;86.47;;;;;;;15.68;42.06;94479.78;4932402;29;20096;-88
2022/01/25 08:48:45;;;;;;;190.90;98.53;;;;;;;15.65;42.40;94496.31;4911439;29;20043;-87
2022/01/25 08:51:11;;;;;;;203.18;101.68;;;;;;;15.68;42.04;94490.69;4899272;29;20040;-88
2022/01/25 08:53:36;;;;;;;192.38;100.28;;;;;;;15.71;42.25;94489.00;4917382;29;20152;-87
2022/01/25 08:56:02;;;;;;;166.80;94.78;;;;;;;15.78;42.03;94480.47;4932851;29;20075;-87
2022/01/25 08:58:27;;;;;;;191.07;94.43;;;;;;;15.68;42.32;94481.75;4910690;29;20063;-89
2022/01/25 09:00:53;;;;;;;184.88;97.55;;;;;;;15.70;42.46;94476.59;4931990;29;20043;-87
2022/01/25 09:03:18;;;;;;;168.38;90.88;;;;;;;15.74;41.96;94477.19;4920874;29;20036;-88
2022/01/25 09:05:44;;;;;;;163.15;87.35;;;;;;;15.74;41.99;94477.94;4931969;29;20083;-89
2022/01/25 09:08:10;;;;;;;152.18;85.03;;;;;;;15.76;41.91;94491.09;4916878;28;20384;-87
2022/01/25 09:10:35;;;;;;;167.98;88.25;;;;;;;15.81;42.12;94490.44;4917238;29;20062;-89
2022/01/25 09:13:02;;;;;;;160.20;85.72;;;;;;;15.80;42.06;94482.75;4928107;29;20110;-88
2022/01/25 09:15:30;;;;;;;159.88;85.13;;;;;;;15.70;42.42;94490.22;4930677;29;20044;-91
2022/01/25 09:17:55;;;;;;;150.23;78.35;;;;;;;15.71;42.46;94489.75;4914552;29;20040;-89
2022/01/25 09:20:21;;;;;;;138.23;75.80;;;;;;;15.75;42.49;94487.63;4927619;28;20110;-90
2022/01/25 09:22:46;;;;;;;167.15;83.13;;;;;;;15.75;42.64;94493.06;4932526;28;20139;-90
2022/01/25 09:25:13;;;;;;;152.27;73.65;;;;;;;15.71;42.21;94492.50;4903588;29;20427;-91
2022/01/25 09:27:39;;;;;;;148.32;75.80;;;;;;;15.76;42.21;94494.56;4907807;29;20034;-90
2022/01/25 09:30:05;;;;;;;136.27;71.70;;;;;;;15.76;42.31;94504.72;4921663;29;20040;-90
2022/01/25 09:32:30;;;;;;;120.75;65.38;;;;;;;15.75;42.18;94516.84;4939874;29;20430;-89
2022/01/25 09:34:55;;;;;;;127.55;69.82;;;;;;;15.75;42.28;94503.22;4917796;29;20529;-89
2022/01/25 09:37:21;;;;;;;142.85;76.85;;;;;;;15.79;42.25;94508.50;4926130;28;20043;-89
2022/01/25 09:39:46;;;;;;;137.63;79.30;;;;;;;15.76;42.33;94500.03;4929663;28;20415;-89
2022/01/25 09:42:12;;;;;;;133.48;71.78;;;;;;;15.77;42.25;94492.59;4929819;28;20114;-90
2022/01/25 09:44:39;;;;;;;133.75;69.10;;;;;;;15.76;42.27;94489.13;4939722;28;20101;-90
2022/01/25 09:47:06;;;;;;;117.05;64.88;;;;;;;15.77;42.00;94490.63;4937917;28;20047;-89
2022/01/25 09:49:32;;;;;;;121.40;65.15;;;;;;;15.79;42.37;94489.41;4945785;28;20081;-89
2022/01/25 09:51:59;;;;;;;118.85;66.20;;;;;;;15.77;42.57;94487.91;4937890;28;20062;-89
2022/01/25 09:54:26;;;;;;;140.60;75.53;;;;;;;15.83;41.94;94487.22;4935557;28;20043;-91
2022/01/25 09:56:52;;;;;;;164.93;82.15;;;;;;;15.83;42.31;94482.53;4926098;29;20082;-91
2022/01/25 09:59:17;;;;;;;183.98;96.93;;;;;;;15.83;42.37;94484.50;4924934;28;20043;-92
2022/01/25 10:01:43;;;;;;;191.07;96.90;;;;;;;15.81;42.21;94484.97;4922415;29;20502;-90
2022/01/25 10:04:29;;;;;;;199.65;99.22;;;;;;;15.83;42.44;94485.25;4926627;28;20031;-88
2022/01/25 10:06:55;;;;;;;190.30;94.32;;;;;;;15.84;42.03;94480.56;4952282;28;20050;-90
2022/01/25 10:09:24;;;;;;;198.70;91.68;;;;;;;15.82;42.44;94485.72;4925593;28;20426;-89
2022/01/25 10:11:50;;;;;;;201.38;92.13;;;;;;;15.83;42.10;94471.63;4942885;28;20047;-90
2022/01/25 10:14:17;;;;;;;207.30;100.75;;;;;;;15.84;42.16;94480.56;4939113;28;20054;-90
2022/01/25 10:16:43;;;;;;;221.02;105.03;;;;;;;15.89;42.31;94479.91;4921675;29;20035;-90
2022/01/25 10:19:11;;;;;;;248.00;106.78;;;;;;;15.89;42.15;94479.91;4939032;28;20103;-90
2022/01/25 10:21:44;;;;;;;242.85;108.68;;;;;;;15.83;42.38;94488.00;4942671;28;20035;-87
2022/01/25 10:24:17;;;;;;;240.27;110.05;;;;;;;15.84;42.54;94486.78;4954214;28;20049;-86
2022/01/25 10:26:50;;;;;;;217.88;107.68;;;;;;;15.83;42.71;94489.97;4930961;28;20038;-87
2022/01/25 10:29:18;;;;;;;217.63;104.53;;;;;;;15.84;42.23;94478.59;4952611;28;20043;-87
2022/01/25 10:31:49;;;;;;;212.07;107.32;;;;;;;15.79;42.68;94479.25;4934746;29;20043;-89
2022/01/25 10:34:17;;;;;;;217.95;104.57;;;;;;;15.88;42.38;94479.16;4936486;28;20102;-88
2022/01/25 10:36:49;;;;;;;204.85;102.80;;;;;;;15.83;42.32;94477.09;4909086;29;20674;-89
2022/01/25 10:39:21;;;;;;;208.30;99.90;;;;;;;15.83;42.53;94484.50;4946517;28;20051;-85
2022/01/25 10:41:47;;;;;;;219.70;102.28;;;;;;;15.90;42.39;94484.16;4959787;28;20040;-89
2022/01/25 10:44:13;;;;;;;209.07;103.72;;;;;;;15.85;42.49;94487.53;4954421;28;20557;-90
2022/01/25 10:46:39;;;;;;;208.55;102.28;;;;;;;15.89;42.10;94479.91;4915886;29;20118;-89
2022/01/25 10:49:05;;;;;;;220.25;99.60;;;;;;;15.89;42.33;94477.94;4932769;28;20043;-88
2022/01/25 10:51:35;;;;;;;209.65;96.95;;;;;;;15.88;42.10;94470.22;4928529;28;20059;-89
2022/01/25 10:54:04;;;;;;;191.20;94.05;;;;;;;15.86;42.69;94472.66;4934708;28;20063;-89
2022/01/25 10:56:36;;;;;;;195.75;99.35;;;;;;;15.89;42.43;94471.75;4945140;28;20043;-86
2022/01/25 10:59:03;;;;;;;194.45;98.70;;;;;;;15.91;42.47;94455.66;4966619;28;20036;-86
2022/01/25 11:01:33;;;;;;;202.82;91.68;;;;;;;15.89;42.55;94458.84;4926938;28;20074;-86
2022/01/25 11:04:13;;;;;;;213.98;94.40;;;;;;;15.97;42.89;94453.78;4933649;28;20040;-85
2022/01/25 11:06:39;;;;;;;192.23;88.30;;;;;;;15.97;42.76;94451.06;4936618;28;20036;-92
2022/01/25 11:09:07;;;;;;;169.95;82.43;;;;;;;16.08;42.68;94445.78;4938386;28;20050;-91
2022/01/25 11:11:37;;;;;;;168.25;76.20;;;;;;;16.08;42.71;94452.00;4950045;28;20042;-86
2022/01/25 11:16:48;;;;;;;138.95;74.88;;;;;;;16.14;42.80;94445.91;4940619;28;20090;-89
2022/01/25 11:19:13;;;;;;;149.15;74.75;;;;;;;16.06;42.19;94434.59;4921869;28;20074;-89
2022/01/25 11:21:39;;;;;;;138.20;74.85;;;;;;;16.15;42.63;94448.16;4931009;28;20039;-87
2022/01/25 11:24:05;;;;;;;147.45;73.03;;;;;;;16.23;42.65;94446.56;4919113;28;20057;-90
2022/01/25 11:26:30;;;;;;;138.07;73.07;;;;;;;16.26;42.77;94437.41;4934129;28;20044;-87
2022/01/25 11:28:56;;;;;;;137.68;72.85;;;;;;;16.21;42.19;94435.38;4932906;28;20051;-89
2022/01/25 11:31:22;;;;;;;125.03;66.95;;;;;;;16.25;42.58;94437.88;4941787;28;20643;-87
2022/01/25 11:33:48;;;;;;;133.95;70.75;;;;;;;16.28;42.59;94432.25;4943406;28;20443;-90
2022/01/25 11:36:13;;;;;;;186.13;108.07;;;;;;;16.23;42.48;94427.47;4942253;28;20042;-89
2022/01/25 11:38:43;;;;;;;115.63;65.78;;;;;;;16.22;42.23;94425.97;4937875;28;20103;-87
2022/01/25 11:41:12;;;;;;;120.57;62.35;;;;;;;16.27;42.21;94416.34;4963334;28;20057;-89
2022/01/25 11:43:37;;;;;;;115.20;60.95;;;;;;;16.26;42.06;94426.50;4932103;29;20070;-88
2022/01/25 11:46:05;;;;;;;104.18;54.13;;;;;;;16.27;41.90;94428.00;4949697;28;20035;-88
2022/01/25 11:48:41;;;;;;;97.38;54.20;;;;;;;16.23;42.16;94426.72;4935913;28;20263;-88
2022/01/25 11:51:12;;;;;;;95.95;52.75;;;;;;;16.12;42.03;94427.28;4958152;28;20070;-90
2022/01/25 11:53:40;;;;;;;;;;;;;;;16.07;41.94;94423.22;4939158;28;20541;-90
2022/01/25 11:56:08;;;;;;;107.78;54.88;;;;;;;16.10;42.16;94418.81;4942689;28;19934;-90
2022/01/25 11:58:33;;;;;;;136.77;65.45;;;;;;;16.03;42.20;94419.16;4929828;28;20054;-89
2022/01/25 12:01:03;;;;;;;162.85;80.03;;;;;;;16.05;42.36;94416.72;4942735;28;20039;-91
2022/01/25 12:03:47;;;;;;;156.20;83.85;;;;;;;16.06;42.39;94413.53;4948953;28;20110;-90
2022/01/25 12:06:24;;;;;;;164.75;81.40;;;;;;;16.01;42.35;94418.91;4944190;28;20097;-89
2022/01/25 12:09:07;;;;;;;184.63;91.75;;;;;;;16.01;42.07;94411.47;4951913;28;20061;-89
2022/01/25 12:11:51;;;;;;;193.88;95.78;;;;;;;16.01;42.35;94411.47;4987184;28;20512;-89
2022/01/25 12:14:25;;;;;;;221.23;97.97;;;;;;;16.03;42.45;94402.81;4969703;28;20047;-89
2022/01/25 12:17:04;;;;;;;190.73;97.78;;;;;;;16.02;42.40;94404.06;4962001;28;20027;-88
2022/01/25 12:19:47;;;;;;;199.15;98.95;;;;;;;16.03;42.49;94400.84;4962708;28;20042;-88
2022/01/25 12:22:36;;;;;;;225.00;109.72;;;;;;;16.03;43.04;94406.28;4945908;28;20047;-87
2022/01/25 12:25:30;;;;;;;213.02;110.18;;;;;;;16.03;42.39;94400.09;4976100;28;20105;-89
2022/01/25 12:28:06;;;;;;;235.15;119.97;;;;;;;16.02;42.33;94401.34;4921147;29;20137;-87
2022/01/25 12:30:39;;;;;;;222.43;112.38;;;;;;;16.02;42.43;94396.59;4946747;28;20047;-88
2022/01/25 12:33:05;;;;;;;242.35;117.85;;;;;;;16.04;42.45;94385.97;4940635;28;20039;-90
2022/01/25 12:35:41;;;;;;;246.88;119.45;;;;;;;16.01;42.37;94375.28;4975184;28;20050;-91
2022/01/25 12:38:22;;;;;;;253.05;129.65;;;;;;;15.99;42.37;94375.00;4961109;28;20059;-90
2022/01/25 12:40:49;;;;;;;235.85;122.50;;;;;;;15.99;42.63;94377.72;4946233;28;20053;-89
2022/01/25 12:43:23;;;;;;;229.32;115.80;;;;;;;15.97;42.52;94375.47;4941892;28;20058;-87
2022/01/25 12:45:51;;;;;;;295.23;140.02;;;;;;;16.01;42.77;94370.56;4942890;28;20589;-88
2022/01/25 12:48:25;;;;;;;210.77;96.20;;;;;;;15.94;39.60;94365.50;4966467;28;20039;-87
2022/01/25 12:50:52;;;;;;;130.63;60.92;;;;;;;15.88;38.32;94377.53;4927408;28;20058;-86
2022/01/25 12:53:20;;;;;;;143.02;57.30;;;;;;;15.87;38.07;94359.66;4941375;28;20031;-88
2022/01/25 12:55:48;;;;;;;158.70;62.60;;;;;;;15.81;38.12;94367.00;4928649;28;20111;-87
2022/01/25 12:58:14;;;;;;;141.98;61.85;;;;;;;15.79;38.79;94367.50;4923136;28;20034;-89
2022/01/25 13:00:51;;;;;;;151.05;64.80;;;;;;;15.86;39.06;94364.38;4948188;28;20121;-89
2022/01/25 13:03:29;;;;;;;171.00;78.50;;;;;;;15.81;39.99;94375.91;4935120;28;20051;-90